This is the latest recevied weather packets stored in our database for station/object HJ3GNC-15. If no packets are shown the sender has not sent any weather packets the latest 10 day(s).
| Time | Temp. | Humidity | Pressure | Rain* | Wind** | Luminosity | Snow |
|---|---|---|---|---|---|---|---|
| 1777654823 | 21.67° C | 65% | 1012 hPa | 0 mm | - | - | - |
| 1777653879 | 21.67° C | 65% | 1012 hPa | 0 mm | - | - | - |
| 1777652935 | 20.56° C | 72% | 1013 hPa | 0 mm | - | - | - |
| 1777651991 | 20.56° C | 73% | 1013 hPa | 0 mm | - | - | - |
| 1777651046 | 20.56° C | 74% | 1013 hPa | 0 mm | - | - | - |
| 1777650103 | 20.56° C | 74% | 1013 hPa | 0 mm | - | - | - |
| 1777649152 | 19.44° C | 75% | 1014 hPa | 0 mm | - | - | - |
| 1777648211 | 19.44° C | 75% | 1014 hPa | 0 mm | - | - | - |
| 1777647269 | 19.44° C | 76% | 1014 hPa | 0 mm | - | - | - |
| 1777646327 | 19.44° C | 76% | 1014 hPa | 0 mm | - | - | - |
| 1777645385 | 17.78° C | 78% | 1014 hPa | 0 mm | - | - | - |
| 1777644441 | 17.78° C | 80% | 1014 hPa | 0 mm | - | - | - |
| 1777643499 | 17.78° C | 80% | 1014 hPa | 0 mm | - | - | - |
| 1777642558 | 17.78° C | 80% | 1014 hPa | 0 mm | - | - | - |
| 1777641618 | 16.67° C | 83% | 1014 hPa | 0 mm | - | - | - |
| 1777640676 | 16.11° C | 84% | 1014 hPa | 0 mm | - | - | - |
| 1777639727 | 16.11° C | 83% | 1014 hPa | 0 mm | - | - | - |
| 1777638775 | 16.11° C | 83% | 1014 hPa | 0 mm | - | - | - |
| 1777637823 | 15° C | 91% | 1014 hPa | 0 mm | - | - | - |
| 1777636878 | 15° C | 90% | 1014 hPa | 0 mm | - | - | - |
| 1777635923 | 15° C | 90% | 1014 hPa | 0 mm | - | - | - |
| 1777634979 | 13.89° C | 93% | 1014 hPa | 0 mm | - | - | - |
| 1777634034 | 13.89° C | 92% | 1014 hPa | 0 mm | - | - | - |
| 1777633088 | 13.89° C | 92% | 1014 hPa | 0 mm | - | - | - |
| 1777632142 | 13.89° C | 92% | 1014 hPa | 0 mm | - | - | - |
* Rain latest hour (hover to see other rain measurements)
** Current wind speed in m/s (hover to see current wind gust speed)